sensor_id;sensor_type;location;lat;lon;timestamp;P1;durP1;ratioP1;P2;durP2;ratioP2
80104;SDS011;69865;47.648;19.030;2024-03-17T00:00:02;3.80;;;3.80;;
80104;SDS011;69865;47.648;19.030;2024-03-17T00:00:34;3.77;;;3.77;;
80104;SDS011;69865;47.648;19.030;2024-03-17T00:01:05;3.53;;;3.53;;
80104;SDS011;69865;47.648;19.030;2024-03-17T00:01:36;3.60;;;3.60;;
80104;SDS011;69865;47.648;19.030;2024-03-17T00:02:08;3.17;;;3.17;;
80104;SDS011;69865;47.648;19.030;2024-03-17T00:02:39;2.87;;;2.87;;
80104;SDS011;69865;47.648;19.030;2024-03-17T00:03:10;3.23;;;3.23;;
80104;SDS011;69865;47.648;19.030;2024-03-17T00:03:41;3.37;;;3.37;;
80104;SDS011;69865;47.648;19.030;2024-03-17T00:04:12;3.53;;;3.53;;
80104;SDS011;69865;47.648;19.030;2024-03-17T00:04:43;3.73;;;3.73;;
80104;SDS011;69865;47.648;19.030;2024-03-17T00:05:14;3.50;;;3.50;;
80104;SDS011;69865;47.648;19.030;2024-03-17T00:05:45;3.57;;;3.57;;
80104;SDS011;69865;47.648;19.030;2024-03-17T00:06:16;3.17;;;3.17;;
80104;SDS011;69865;47.648;19.030;2024-03-17T00:06:47;3.77;;;3.77;;
80104;SDS011;69865;47.648;19.030;2024-03-17T00:07:18;3.77;;;3.77;;
80104;SDS011;69865;47.648;19.030;2024-03-17T00:07:49;3.20;;;3.20;;
80104;SDS011;69865;47.648;19.030;2024-03-17T00:08:20;3.17;;;3.17;;
80104;SDS011;69865;47.648;19.030;2024-03-17T00:08:51;3.13;;;3.13;;
80104;SDS011;69865;47.648;19.030;2024-03-17T00:09:22;3.87;;;3.87;;
80104;SDS011;69865;47.648;19.030;2024-03-17T00:09:53;3.83;;;3.83;;
80104;SDS011;69865;47.648;19.030;2024-03-17T00:10:25;3.33;;;3.33;;
80104;SDS011;69865;47.648;19.030;2024-03-17T00:10:56;3.43;;;3.40;;
80104;SDS011;69865;47.648;19.030;2024-03-17T00:11:28;3.63;;;3.57;;
80104;SDS011;69865;47.648;19.030;2024-03-17T00:11:59;3.47;;;3.40;;
80104;SDS011;69865;47.648;19.030;2024-03-17T00:12:30;3.73;;;3.67;;
80104;SDS011;69865;47.648;19.030;2024-03-17T00:13:01;3.43;;;3.33;;
80104;SDS011;69865;47.648;19.030;2024-03-17T00:13:32;4.10;;;4.00;;
80104;SDS011;69865;47.648;19.030;2024-03-17T00:14:03;4.60;;;4.50;;
80104;SDS011;69865;47.648;19.030;2024-03-17T00:14:34;4.33;;;4.23;;
80104;SDS011;69865;47.648;19.030;2024-03-17T00:15:05;4.20;;;4.17;;
80104;SDS011;69865;47.648;19.030;2024-03-17T00:15:37;4.63;;;4.53;;
80104;SDS011;69865;47.648;19.030;2024-03-17T00:16:08;4.47;;;4.37;;
80104;SDS011;69865;47.648;19.030;2024-03-17T00:16:39;3.90;;;3.80;;
80104;SDS011;69865;47.648;19.030;2024-03-17T00:17:10;4.17;;;4.10;;
80104;SDS011;69865;47.648;19.030;2024-03-17T00:17:41;4.20;;;4.13;;
80104;SDS011;69865;47.648;19.030;2024-03-17T00:18:12;4.00;;;3.93;;
80104;SDS011;69865;47.648;19.030;2024-03-17T00:18:43;3.33;;;3.33;;
80104;SDS011;69865;47.648;19.030;2024-03-17T00:19:15;3.23;;;3.23;;
80104;SDS011;69865;47.648;19.030;2024-03-17T00:19:46;3.30;;;3.30;;
80104;SDS011;69865;47.648;19.030;2024-03-17T00:20:17;2.90;;;2.87;;
80104;SDS011;69865;47.648;19.030;2024-03-17T00:20:49;3.07;;;3.03;;
80104;SDS011;69865;47.648;19.030;2024-03-17T00:21:20;3.40;;;3.37;;
80104;SDS011;69865;47.648;19.030;2024-03-17T00:21:51;3.00;;;3.00;;
80104;SDS011;69865;47.648;19.030;2024-03-17T00:22:22;2.70;;;2.67;;
80104;SDS011;69865;47.648;19.030;2024-03-17T00:22:53;2.77;;;2.73;;
80104;SDS011;69865;47.648;19.030;2024-03-17T00:23:24;2.70;;;2.70;;
80104;SDS011;69865;47.648;19.030;2024-03-17T00:23:55;2.60;;;2.60;;
80104;SDS011;69865;47.648;19.030;2024-03-17T00:24:26;2.60;;;2.60;;
80104;SDS011;69865;47.648;19.030;2024-03-17T00:24:57;2.80;;;2.80;;
80104;SDS011;69865;47.648;19.030;2024-03-17T00:25:29;2.80;;;2.77;;
80104;SDS011;69865;47.648;19.030;2024-03-17T00:26:00;2.33;;;2.33;;
80104;SDS011;69865;47.648;19.030;2024-03-17T00:26:32;2.50;;;2.50;;
80104;SDS011;69865;47.648;19.030;2024-03-17T00:27:03;2.80;;;2.80;;
80104;SDS011;69865;47.648;19.030;2024-03-17T00:27:34;2.13;;;2.13;;
80104;SDS011;69865;47.648;19.030;2024-03-17T00:28:05;2.13;;;2.13;;
80104;SDS011;69865;47.648;19.030;2024-03-17T00:28:36;1.97;;;1.97;;
80104;SDS011;69865;47.648;19.030;2024-03-17T00:29:07;2.10;;;2.10;;
80104;SDS011;69865;47.648;19.030;2024-03-17T00:29:39;2.50;;;2.50;;
80104;SDS011;69865;47.648;19.030;2024-03-17T00:30:10;2.37;;;2.37;;
80104;SDS011;69865;47.648;19.030;2024-03-17T00:30:42;2.27;;;2.27;;
80104;SDS011;69865;47.648;19.030;2024-03-17T00:31:13;2.20;;;2.20;;
80104;SDS011;69865;47.648;19.030;2024-03-17T00:31:44;2.57;;;2.57;;
80104;SDS011;69865;47.648;19.030;2024-03-17T00:32:15;2.40;;;2.40;;
80104;SDS011;69865;47.648;19.030;2024-03-17T00:32:46;2.67;;;2.67;;
80104;SDS011;69865;47.648;19.030;2024-03-17T00:33:17;2.63;;;2.63;;
80104;SDS011;69865;47.648;19.030;2024-03-17T00:33:48;2.37;;;2.37;;
80104;SDS011;69865;47.648;19.030;2024-03-17T00:34:22;2.50;;;2.50;;
80104;SDS011;69865;47.648;19.030;2024-03-17T00:34:53;2.37;;;2.37;;
80104;SDS011;69865;47.648;19.030;2024-03-17T00:35:25;2.17;;;2.17;;
80104;SDS011;69865;47.648;19.030;2024-03-17T00:35:56;2.13;;;2.13;;
80104;SDS011;69865;47.648;19.030;2024-03-17T00:36:29;2.83;;;2.83;;
80104;SDS011;69865;47.648;19.030;2024-03-17T00:37:01;2.53;;;2.53;;
80104;SDS011;69865;47.648;19.030;2024-03-17T00:37:32;2.50;;;2.50;;
80104;SDS011;69865;47.648;19.030;2024-03-17T00:38:03;2.17;;;2.17;;
80104;SDS011;69865;47.648;19.030;2024-03-17T00:38:34;2.30;;;2.30;;
80104;SDS011;69865;47.648;19.030;2024-03-17T00:39:05;2.37;;;2.37;;
80104;SDS011;69865;47.648;19.030;2024-03-17T00:39:36;2.17;;;2.17;;
80104;SDS011;69865;47.648;19.030;2024-03-17T00:40:07;2.33;;;2.33;;
80104;SDS011;69865;47.648;19.030;2024-03-17T00:40:40;2.33;;;2.33;;
80104;SDS011;69865;47.648;19.030;2024-03-17T00:41:12;2.43;;;2.43;;
80104;SDS011;69865;47.648;19.030;2024-03-17T00:41:43;2.63;;;2.63;;
80104;SDS011;69865;47.648;19.030;2024-03-17T00:42:15;2.10;;;2.10;;
80104;SDS011;69865;47.648;19.030;2024-03-17T00:42:46;2.37;;;2.37;;
80104;SDS011;69865;47.648;19.030;2024-03-17T00:43:17;2.43;;;2.43;;
80104;SDS011;69865;47.648;19.030;2024-03-17T00:43:48;2.07;;;2.07;;
80104;SDS011;69865;47.648;19.030;2024-03-17T00:44:19;2.03;;;2.03;;
80104;SDS011;69865;47.648;19.030;2024-03-17T00:44:50;2.30;;;2.30;;
80104;SDS011;69865;47.648;19.030;2024-03-17T00:45:21;2.37;;;2.37;;
80104;SDS011;69865;47.648;19.030;2024-03-17T00:45:53;2.33;;;2.33;;
80104;SDS011;69865;47.648;19.030;2024-03-17T00:46:24;2.33;;;2.33;;
80104;SDS011;69865;47.648;19.030;2024-03-17T00:46:55;2.30;;;2.30;;
80104;SDS011;69865;47.648;19.030;2024-03-17T00:47:26;2.30;;;2.30;;
80104;SDS011;69865;47.648;19.030;2024-03-17T00:47:57;2.10;;;2.10;;
80104;SDS011;69865;47.648;19.030;2024-03-17T00:48:28;2.13;;;2.13;;
80104;SDS011;69865;47.648;19.030;2024-03-17T00:48:59;2.63;;;2.63;;
80104;SDS011;69865;47.648;19.030;2024-03-17T00:49:30;2.07;;;2.07;;
80104;SDS011;69865;47.648;19.030;2024-03-17T00:50:02;2.27;;;2.27;;
80104;SDS011;69865;47.648;19.030;2024-03-17T00:50:33;2.47;;;2.47;;
80104;SDS011;69865;47.648;19.030;2024-03-17T00:51:04;2.57;;;2.57;;
80104;SDS011;69865;47.648;19.030;2024-03-17T00:51:36;2.27;;;2.27;;
80104;SDS011;69865;47.648;19.030;2024-03-17T00:52:07;2.20;;;2.20;;
80104;SDS011;69865;47.648;19.030;2024-03-17T00:52:38;2.37;;;2.37;;
80104;SDS011;69865;47.648;19.030;2024-03-17T00:53:09;2.00;;;2.00;;
80104;SDS011;69865;47.648;19.030;2024-03-17T00:53:41;2.13;;;2.13;;
80104;SDS011;69865;47.648;19.030;2024-03-17T00:54:12;2.40;;;2.40;;
80104;SDS011;69865;47.648;19.030;2024-03-17T00:54:46;2.13;;;2.13;;
80104;SDS011;69865;47.648;19.030;2024-03-17T00:55:17;2.17;;;2.17;;
80104;SDS011;69865;47.648;19.030;2024-03-17T00:55:53;2.50;;;2.50;;
80104;SDS011;69865;47.648;19.030;2024-03-17T00:56:24;2.37;;;2.37;;
80104;SDS011;69865;47.648;19.030;2024-03-17T00:56:55;2.50;;;2.50;;
80104;SDS011;69865;47.648;19.030;2024-03-17T00:57:26;2.37;;;2.37;;
80104;SDS011;69865;47.648;19.030;2024-03-17T00:57:58;2.07;;;2.07;;
80104;SDS011;69865;47.648;19.030;2024-03-17T00:58:29;1.97;;;1.97;;
80104;SDS011;69865;47.648;19.030;2024-03-17T00:59:00;1.70;;;1.70;;
80104;SDS011;69865;47.648;19.030;2024-03-17T00:59:31;1.97;;;1.97;;
80104;SDS011;69865;47.648;19.030;2024-03-17T01:00:02;1.87;;;1.87;;
80104;SDS011;69865;47.648;19.030;2024-03-17T01:00:34;2.13;;;2.13;;
80104;SDS011;69865;47.648;19.030;2024-03-17T01:01:05;2.07;;;2.07;;
80104;SDS011;69865;47.648;19.030;2024-03-17T01:01:36;2.27;;;2.27;;
80104;SDS011;69865;47.648;19.030;2024-03-17T01:02:07;2.43;;;2.43;;
80104;SDS011;69865;47.648;19.030;2024-03-17T01:02:38;2.20;;;2.20;;
80104;SDS011;69865;47.648;19.030;2024-03-17T01:03:09;2.17;;;2.17;;
80104;SDS011;69865;47.648;19.030;2024-03-17T01:03:40;2.23;;;2.23;;
80104;SDS011;69865;47.648;19.030;2024-03-17T01:04:11;2.33;;;2.33;;
80104;SDS011;69865;47.648;19.030;2024-03-17T01:04:42;2.37;;;2.37;;
80104;SDS011;69865;47.648;19.030;2024-03-17T01:05:14;2.40;;;2.40;;
80104;SDS011;69865;47.648;19.030;2024-03-17T01:05:45;2.50;;;2.50;;
80104;SDS011;69865;47.648;19.030;2024-03-17T01:06:16;2.50;;;2.50;;
80104;SDS011;69865;47.648;19.030;2024-03-17T01:06:47;2.30;;;2.30;;
80104;SDS011;69865;47.648;19.030;2024-03-17T01:07:18;2.23;;;2.23;;
80104;SDS011;69865;47.648;19.030;2024-03-17T01:07:49;2.33;;;2.33;;
80104;SDS011;69865;47.648;19.030;2024-03-17T01:08:20;2.27;;;2.27;;
80104;SDS011;69865;47.648;19.030;2024-03-17T01:08:51;2.43;;;2.43;;
80104;SDS011;69865;47.648;19.030;2024-03-17T01:09:22;2.80;;;2.80;;
80104;SDS011;69865;47.648;19.030;2024-03-17T01:09:53;2.53;;;2.53;;
80104;SDS011;69865;47.648;19.030;2024-03-17T01:10:25;2.73;;;2.73;;
80104;SDS011;69865;47.648;19.030;2024-03-17T01:10:57;2.47;;;2.47;;
80104;SDS011;69865;47.648;19.030;2024-03-17T01:11:28;2.37;;;2.37;;
80104;SDS011;69865;47.648;19.030;2024-03-17T01:11:59;2.43;;;2.43;;
80104;SDS011;69865;47.648;19.030;2024-03-17T01:12:30;2.53;;;2.53;;
80104;SDS011;69865;47.648;19.030;2024-03-17T01:13:05;2.40;;;2.40;;
80104;SDS011;69865;47.648;19.030;2024-03-17T01:13:37;2.37;;;2.37;;
80104;SDS011;69865;47.648;19.030;2024-03-17T01:14:08;2.23;;;2.23;;
80104;SDS011;69865;47.648;19.030;2024-03-17T01:14:39;2.77;;;2.77;;
80104;SDS011;69865;47.648;19.030;2024-03-17T01:15:11;2.27;;;2.27;;
80104;SDS011;69865;47.648;19.030;2024-03-17T01:15:42;2.57;;;2.57;;
80104;SDS011;69865;47.648;19.030;2024-03-17T01:16:13;2.93;;;2.93;;
80104;SDS011;69865;47.648;19.030;2024-03-17T01:16:44;2.73;;;2.73;;
80104;SDS011;69865;47.648;19.030;2024-03-17T01:17:15;2.87;;;2.87;;
80104;SDS011;69865;47.648;19.030;2024-03-17T01:17:46;2.50;;;2.50;;
80104;SDS011;69865;47.648;19.030;2024-03-17T01:18:17;2.57;;;2.57;;
80104;SDS011;69865;47.648;19.030;2024-03-17T01:18:48;2.73;;;2.73;;
80104;SDS011;69865;47.648;19.030;2024-03-17T01:19:19;3.17;;;3.17;;
80104;SDS011;69865;47.648;19.030;2024-03-17T01:19:51;3.07;;;3.07;;
80104;SDS011;69865;47.648;19.030;2024-03-17T01:20:22;2.73;;;2.73;;
80104;SDS011;69865;47.648;19.030;2024-03-17T01:20:53;3.20;;;3.20;;
80104;SDS011;69865;47.648;19.030;2024-03-17T01:21:24;3.27;;;3.27;;
80104;SDS011;69865;47.648;19.030;2024-03-17T01:21:55;2.70;;;2.70;;
80104;SDS011;69865;47.648;19.030;2024-03-17T01:22:26;2.70;;;2.70;;
80104;SDS011;69865;47.648;19.030;2024-03-17T01:22:57;3.27;;;3.27;;
80104;SDS011;69865;47.648;19.030;2024-03-17T01:23:28;3.13;;;3.13;;
80104;SDS011;69865;47.648;19.030;2024-03-17T01:23:59;2.80;;;2.80;;
80104;SDS011;69865;47.648;19.030;2024-03-17T01:24:30;3.00;;;3.00;;
80104;SDS011;69865;47.648;19.030;2024-03-17T01:25:02;3.20;;;3.20;;
80104;SDS011;69865;47.648;19.030;2024-03-17T01:25:33;3.37;;;3.37;;
80104;SDS011;69865;47.648;19.030;2024-03-17T01:26:06;3.50;;;3.50;;
80104;SDS011;69865;47.648;19.030;2024-03-17T01:26:37;3.60;;;3.60;;
80104;SDS011;69865;47.648;19.030;2024-03-17T01:27:08;3.30;;;3.30;;
80104;SDS011;69865;47.648;19.030;2024-03-17T01:27:39;3.03;;;3.03;;
80104;SDS011;69865;47.648;19.030;2024-03-17T01:28:10;3.30;;;3.30;;
80104;SDS011;69865;47.648;19.030;2024-03-17T01:28:41;3.77;;;3.77;;
80104;SDS011;69865;47.648;19.030;2024-03-17T01:29:12;3.50;;;3.50;;
80104;SDS011;69865;47.648;19.030;2024-03-17T01:29:44;3.80;;;3.80;;
80104;SDS011;69865;47.648;19.030;2024-03-17T01:30:15;3.90;;;3.90;;
80104;SDS011;69865;47.648;19.030;2024-03-17T01:30:46;3.53;;;3.53;;
80104;SDS011;69865;47.648;19.030;2024-03-17T01:31:17;3.40;;;3.40;;
80104;SDS011;69865;47.648;19.030;2024-03-17T01:31:48;3.57;;;3.57;;
80104;SDS011;69865;47.648;19.030;2024-03-17T01:32:19;3.50;;;3.50;;
80104;SDS011;69865;47.648;19.030;2024-03-17T01:32:50;3.43;;;3.43;;
80104;SDS011;69865;47.648;19.030;2024-03-17T01:33:22;3.77;;;3.77;;
80104;SDS011;69865;47.648;19.030;2024-03-17T01:33:53;4.17;;;4.17;;
80104;SDS011;69865;47.648;19.030;2024-03-17T01:34:24;3.60;;;3.60;;
80104;SDS011;69865;47.648;19.030;2024-03-17T01:34:55;3.53;;;3.53;;
80104;SDS011;69865;47.648;19.030;2024-03-17T01:35:26;3.50;;;3.50;;
80104;SDS011;69865;47.648;19.030;2024-03-17T01:35:57;3.73;;;3.73;;
80104;SDS011;69865;47.648;19.030;2024-03-17T01:36:28;3.67;;;3.67;;
80104;SDS011;69865;47.648;19.030;2024-03-17T01:36:59;3.20;;;3.20;;
80104;SDS011;69865;47.648;19.030;2024-03-17T01:37:31;3.77;;;3.77;;
80104;SDS011;69865;47.648;19.030;2024-03-17T01:38:02;4.10;;;4.10;;
80104;SDS011;69865;47.648;19.030;2024-03-17T01:38:33;3.97;;;3.97;;
80104;SDS011;69865;47.648;19.030;2024-03-17T01:39:04;4.03;;;4.03;;
80104;SDS011;69865;47.648;19.030;2024-03-17T01:39:35;3.77;;;3.77;;
80104;SDS011;69865;47.648;19.030;2024-03-17T01:40:06;3.77;;;3.77;;
80104;SDS011;69865;47.648;19.030;2024-03-17T01:40:38;4.07;;;4.07;;
80104;SDS011;69865;47.648;19.030;2024-03-17T01:41:11;3.93;;;3.93;;
80104;SDS011;69865;47.648;19.030;2024-03-17T01:41:42;3.87;;;3.87;;
80104;SDS011;69865;47.648;19.030;2024-03-17T01:42:13;3.83;;;3.83;;
80104;SDS011;69865;47.648;19.030;2024-03-17T01:42:44;3.87;;;3.87;;
80104;SDS011;69865;47.648;19.030;2024-03-17T01:43:15;3.90;;;3.90;;
80104;SDS011;69865;47.648;19.030;2024-03-17T01:43:46;3.80;;;3.80;;
80104;SDS011;69865;47.648;19.030;2024-03-17T01:44:21;3.93;;;3.93;;
80104;SDS011;69865;47.648;19.030;2024-03-17T01:44:54;4.03;;;4.03;;
80104;SDS011;69865;47.648;19.030;2024-03-17T01:45:26;3.93;;;3.93;;
80104;SDS011;69865;47.648;19.030;2024-03-17T01:45:59;3.63;;;3.63;;
80104;SDS011;69865;47.648;19.030;2024-03-17T01:46:31;3.60;;;3.60;;
80104;SDS011;69865;47.648;19.030;2024-03-17T01:47:02;3.60;;;3.60;;
80104;SDS011;69865;47.648;19.030;2024-03-17T01:47:34;3.57;;;3.57;;
80104;SDS011;69865;47.648;19.030;2024-03-17T01:48:08;4.03;;;4.03;;
80104;SDS011;69865;47.648;19.030;2024-03-17T01:48:43;3.87;;;3.87;;
80104;SDS011;69865;47.648;19.030;2024-03-17T01:49:14;3.70;;;3.70;;
80104;SDS011;69865;47.648;19.030;2024-03-17T01:49:46;3.93;;;3.87;;
80104;SDS011;69865;47.648;19.030;2024-03-17T01:50:19;4.20;;;4.20;;
80104;SDS011;69865;47.648;19.030;2024-03-17T01:50:51;4.30;;;4.30;;
80104;SDS011;69865;47.648;19.030;2024-03-17T01:51:26;4.10;;;4.10;;
80104;SDS011;69865;47.648;19.030;2024-03-17T01:51:57;3.70;;;3.70;;
80104;SDS011;69865;47.648;19.030;2024-03-17T01:52:28;4.47;;;4.47;;
80104;SDS011;69865;47.648;19.030;2024-03-17T01:53:00;4.23;;;4.23;;
80104;SDS011;69865;47.648;19.030;2024-03-17T01:53:34;4.00;;;4.00;;
80104;SDS011;69865;47.648;19.030;2024-03-17T01:54:05;3.63;;;3.63;;
80104;SDS011;69865;47.648;19.030;2024-03-17T01:54:38;3.53;;;3.53;;
80104;SDS011;69865;47.648;19.030;2024-03-17T01:55:10;3.97;;;3.97;;
80104;SDS011;69865;47.648;19.030;2024-03-17T01:55:42;4.03;;;4.03;;
80104;SDS011;69865;47.648;19.030;2024-03-17T01:56:16;4.17;;;4.17;;
80104;SDS011;69865;47.648;19.030;2024-03-17T01:56:47;4.37;;;4.37;;
80104;SDS011;69865;47.648;19.030;2024-03-17T01:57:19;4.60;;;4.60;;
80104;SDS011;69865;47.648;19.030;2024-03-17T01:57:50;4.53;;;4.53;;
80104;SDS011;69865;47.648;19.030;2024-03-17T01:58:23;4.20;;;4.20;;
80104;SDS011;69865;47.648;19.030;2024-03-17T01:58:56;4.30;;;4.30;;
80104;SDS011;69865;47.648;19.030;2024-03-17T01:59:28;3.97;;;3.97;;
80104;SDS011;69865;47.648;19.030;2024-03-17T01:59:59;4.20;;;4.20;;
80104;SDS011;69865;47.648;19.030;2024-03-17T02:00:31;4.27;;;4.27;;
80104;SDS011;69865;47.648;19.030;2024-03-17T02:01:02;4.47;;;4.47;;
80104;SDS011;69865;47.648;19.030;2024-03-17T02:01:33;4.47;;;4.47;;
80104;SDS011;69865;47.648;19.030;2024-03-17T02:02:05;4.17;;;4.17;;
80104;SDS011;69865;47.648;19.030;2024-03-17T02:02:36;4.40;;;4.40;;
80104;SDS011;69865;47.648;19.030;2024-03-17T02:03:07;4.73;;;4.73;;
80104;SDS011;69865;47.648;19.030;2024-03-17T02:03:39;4.40;;;4.40;;
80104;SDS011;69865;47.648;19.030;2024-03-17T02:04:10;4.70;;;4.70;;
80104;SDS011;69865;47.648;19.030;2024-03-17T02:04:42;5.03;;;5.03;;
80104;SDS011;69865;47.648;19.030;2024-03-17T02:05:13;5.17;;;5.17;;
80104;SDS011;69865;47.648;19.030;2024-03-17T02:05:44;4.63;;;4.63;;
80104;SDS011;69865;47.648;19.030;2024-03-17T02:06:15;4.63;;;4.63;;
80104;SDS011;69865;47.648;19.030;2024-03-17T02:06:47;4.70;;;4.70;;
80104;SDS011;69865;47.648;19.030;2024-03-17T02:07:18;4.13;;;4.13;;
80104;SDS011;69865;47.648;19.030;2024-03-17T02:07:49;4.07;;;4.07;;
80104;SDS011;69865;47.648;19.030;2024-03-17T02:08:20;4.77;;;4.77;;
80104;SDS011;69865;47.648;19.030;2024-03-17T02:08:52;4.57;;;4.57;;
80104;SDS011;69865;47.648;19.030;2024-03-17T02:09:24;4.80;;;4.80;;
80104;SDS011;69865;47.648;19.030;2024-03-17T02:09:56;4.60;;;4.60;;
80104;SDS011;69865;47.648;19.030;2024-03-17T02:10:27;4.37;;;4.37;;
80104;SDS011;69865;47.648;19.030;2024-03-17T02:10:58;4.20;;;4.20;;
80104;SDS011;69865;47.648;19.030;2024-03-17T02:11:31;4.63;;;4.63;;
80104;SDS011;69865;47.648;19.030;2024-03-17T02:12:03;4.87;;;4.87;;
80104;SDS011;69865;47.648;19.030;2024-03-17T02:12:34;4.47;;;4.47;;
80104;SDS011;69865;47.648;19.030;2024-03-17T02:13:06;4.53;;;4.53;;
80104;SDS011;69865;47.648;19.030;2024-03-17T02:13:38;4.63;;;4.63;;
80104;SDS011;69865;47.648;19.030;2024-03-17T02:14:09;4.47;;;4.47;;
80104;SDS011;69865;47.648;19.030;2024-03-17T02:14:40;4.53;;;4.53;;
80104;SDS011;69865;47.648;19.030;2024-03-17T02:15:11;4.60;;;4.53;;
80104;SDS011;69865;47.648;19.030;2024-03-17T02:15:42;4.77;;;4.73;;
80104;SDS011;69865;47.648;19.030;2024-03-17T02:16:13;4.63;;;4.63;;
80104;SDS011;69865;47.648;19.030;2024-03-17T02:16:44;4.77;;;4.77;;
80104;SDS011;69865;47.648;19.030;2024-03-17T02:17:16;4.27;;;4.27;;
80104;SDS011;69865;47.648;19.030;2024-03-17T02:17:47;4.17;;;4.17;;
80104;SDS011;69865;47.648;19.030;2024-03-17T02:18:18;5.17;;;5.17;;
80104;SDS011;69865;47.648;19.030;2024-03-17T02:18:49;5.17;;;5.17;;
80104;SDS011;69865;47.648;19.030;2024-03-17T02:19:24;4.63;;;4.63;;
80104;SDS011;69865;47.648;19.030;2024-03-17T02:19:55;4.90;;;4.90;;
80104;SDS011;69865;47.648;19.030;2024-03-17T02:20:26;5.17;;;5.17;;
80104;SDS011;69865;47.648;19.030;2024-03-17T02:20:57;4.67;;;4.67;;
80104;SDS011;69865;47.648;19.030;2024-03-17T02:21:28;4.37;;;4.37;;
80104;SDS011;69865;47.648;19.030;2024-03-17T02:21:59;4.20;;;4.20;;
80104;SDS011;69865;47.648;19.030;2024-03-17T02:22:31;4.33;;;4.33;;
80104;SDS011;69865;47.648;19.030;2024-03-17T02:23:03;5.30;;;5.30;;
80104;SDS011;69865;47.648;19.030;2024-03-17T02:23:34;5.13;;;5.13;;
80104;SDS011;69865;47.648;19.030;2024-03-17T02:24:05;4.87;;;4.87;;
80104;SDS011;69865;47.648;19.030;2024-03-17T02:24:38;4.63;;;4.63;;
80104;SDS011;69865;47.648;19.030;2024-03-17T02:25:09;5.03;;;5.03;;
80104;SDS011;69865;47.648;19.030;2024-03-17T02:25:40;5.20;;;5.20;;
80104;SDS011;69865;47.648;19.030;2024-03-17T02:26:11;4.37;;;4.37;;
80104;SDS011;69865;47.648;19.030;2024-03-17T02:26:42;4.47;;;4.47;;
80104;SDS011;69865;47.648;19.030;2024-03-17T02:27:13;4.73;;;4.73;;
80104;SDS011;69865;47.648;19.030;2024-03-17T02:27:44;5.30;;;5.30;;
80104;SDS011;69865;47.648;19.030;2024-03-17T02:28:16;4.77;;;4.77;;
80104;SDS011;69865;47.648;19.030;2024-03-17T02:28:47;4.67;;;4.67;;
80104;SDS011;69865;47.648;19.030;2024-03-17T02:29:18;4.43;;;4.43;;
80104;SDS011;69865;47.648;19.030;2024-03-17T02:29:49;4.27;;;4.27;;
80104;SDS011;69865;47.648;19.030;2024-03-17T02:30:20;4.57;;;4.57;;
80104;SDS011;69865;47.648;19.030;2024-03-17T02:30:51;4.53;;;4.53;;
80104;SDS011;69865;47.648;19.030;2024-03-17T02:31:22;4.77;;;4.73;;
80104;SDS011;69865;47.648;19.030;2024-03-17T02:31:53;4.10;;;4.07;;
80104;SDS011;69865;47.648;19.030;2024-03-17T02:32:24;3.77;;;3.77;;
80104;SDS011;69865;47.648;19.030;2024-03-17T02:32:55;4.13;;;4.13;;
80104;SDS011;69865;47.648;19.030;2024-03-17T02:33:26;4.37;;;4.37;;
80104;SDS011;69865;47.648;19.030;2024-03-17T02:33:57;4.10;;;4.10;;
80104;SDS011;69865;47.648;19.030;2024-03-17T02:34:28;3.93;;;3.93;;
80104;SDS011;69865;47.648;19.030;2024-03-17T02:34:59;4.13;;;4.13;;
80104;SDS011;69865;47.648;19.030;2024-03-17T02:35:30;4.50;;;4.50;;
80104;SDS011;69865;47.648;19.030;2024-03-17T02:36:01;4.30;;;4.30;;
80104;SDS011;69865;47.648;19.030;2024-03-17T02:36:32;4.40;;;4.40;;
80104;SDS011;69865;47.648;19.030;2024-03-17T02:37:03;4.57;;;4.57;;
80104;SDS011;69865;47.648;19.030;2024-03-17T02:37:37;4.10;;;4.10;;
80104;SDS011;69865;47.648;19.030;2024-03-17T02:38:09;4.03;;;4.03;;
80104;SDS011;69865;47.648;19.030;2024-03-17T02:38:43;4.77;;;4.77;;
80104;SDS011;69865;47.648;19.030;2024-03-17T02:39:14;4.37;;;4.37;;
80104;SDS011;69865;47.648;19.030;2024-03-17T02:39:45;3.93;;;3.93;;
80104;SDS011;69865;47.648;19.030;2024-03-17T02:40:16;4.30;;;4.30;;
80104;SDS011;69865;47.648;19.030;2024-03-17T02:40:48;4.63;;;4.63;;
80104;SDS011;69865;47.648;19.030;2024-03-17T02:41:19;4.63;;;4.63;;
80104;SDS011;69865;47.648;19.030;2024-03-17T02:41:50;4.60;;;4.60;;
80104;SDS011;69865;47.648;19.030;2024-03-17T02:42:21;4.07;;;4.07;;
80104;SDS011;69865;47.648;19.030;2024-03-17T02:42:52;4.13;;;4.13;;
80104;SDS011;69865;47.648;19.030;2024-03-17T02:43:23;4.57;;;4.57;;
80104;SDS011;69865;47.648;19.030;2024-03-17T02:43:54;4.07;;;4.07;;
80104;SDS011;69865;47.648;19.030;2024-03-17T02:44:25;3.93;;;3.93;;
80104;SDS011;69865;47.648;19.030;2024-03-17T02:44:56;4.03;;;4.03;;
80104;SDS011;69865;47.648;19.030;2024-03-17T02:45:27;3.80;;;3.80;;
80104;SDS011;69865;47.648;19.030;2024-03-17T02:45:58;3.93;;;3.93;;
80104;SDS011;69865;47.648;19.030;2024-03-17T02:46:30;3.73;;;3.73;;
80104;SDS011;69865;47.648;19.030;2024-03-17T02:47:01;3.67;;;3.67;;
80104;SDS011;69865;47.648;19.030;2024-03-17T02:47:34;4.17;;;4.17;;
80104;SDS011;69865;47.648;19.030;2024-03-17T02:48:06;4.57;;;4.57;;
80104;SDS011;69865;47.648;19.030;2024-03-17T02:48:37;4.83;;;4.83;;
80104;SDS011;69865;47.648;19.030;2024-03-17T02:49:08;4.30;;;4.30;;
80104;SDS011;69865;47.648;19.030;2024-03-17T02:49:39;4.23;;;4.23;;
80104;SDS011;69865;47.648;19.030;2024-03-17T02:50:10;4.53;;;4.53;;
80104;SDS011;69865;47.648;19.030;2024-03-17T02:50:41;4.30;;;4.30;;
80104;SDS011;69865;47.648;19.030;2024-03-17T02:51:12;3.93;;;3.93;;
80104;SDS011;69865;47.648;19.030;2024-03-17T02:51:45;4.13;;;4.13;;
80104;SDS011;69865;47.648;19.030;2024-03-17T02:52:16;4.07;;;4.07;;
80104;SDS011;69865;47.648;19.030;2024-03-17T02:52:48;4.07;;;4.07;;
80104;SDS011;69865;47.648;19.030;2024-03-17T02:53:19;4.30;;;4.30;;
80104;SDS011;69865;47.648;19.030;2024-03-17T02:53:50;3.83;;;3.83;;
80104;SDS011;69865;47.648;19.030;2024-03-17T02:54:21;3.93;;;3.93;;
80104;SDS011;69865;47.648;19.030;2024-03-17T02:54:53;4.17;;;4.17;;
80104;SDS011;69865;47.648;19.030;2024-03-17T02:55:24;3.87;;;3.87;;
80104;SDS011;69865;47.648;19.030;2024-03-17T02:55:55;3.73;;;3.73;;
80104;SDS011;69865;47.648;19.030;2024-03-17T02:56:26;3.77;;;3.77;;
80104;SDS011;69865;47.648;19.030;2024-03-17T02:56:57;3.90;;;3.90;;
80104;SDS011;69865;47.648;19.030;2024-03-17T02:57:29;3.97;;;3.97;;
80104;SDS011;69865;47.648;19.030;2024-03-17T02:58:00;4.10;;;4.10;;
80104;SDS011;69865;47.648;19.030;2024-03-17T02:58:31;3.53;;;3.53;;
80104;SDS011;69865;47.648;19.030;2024-03-17T02:59:03;3.47;;;3.47;;
80104;SDS011;69865;47.648;19.030;2024-03-17T02:59:34;3.83;;;3.83;;
80104;SDS011;69865;47.648;19.030;2024-03-17T03:00:05;4.40;;;4.40;;
80104;SDS011;69865;47.648;19.030;2024-03-17T03:00:37;4.20;;;4.20;;
80104;SDS011;69865;47.648;19.030;2024-03-17T03:01:08;3.57;;;3.57;;
80104;SDS011;69865;47.648;19.030;2024-03-17T03:01:39;3.73;;;3.73;;
80104;SDS011;69865;47.648;19.030;2024-03-17T03:02:10;4.00;;;4.00;;
80104;SDS011;69865;47.648;19.030;2024-03-17T03:02:41;3.67;;;3.67;;
80104;SDS011;69865;47.648;19.030;2024-03-17T03:03:12;3.77;;;3.77;;
80104;SDS011;69865;47.648;19.030;2024-03-17T03:03:43;3.63;;;3.63;;
80104;SDS011;69865;47.648;19.030;2024-03-17T03:04:14;3.30;;;3.30;;
80104;SDS011;69865;47.648;19.030;2024-03-17T03:04:46;3.70;;;3.70;;
80104;SDS011;69865;47.648;19.030;2024-03-17T03:05:17;3.77;;;3.77;;
80104;SDS011;69865;47.648;19.030;2024-03-17T03:05:48;3.43;;;3.43;;